Time;durP1;ratioP1;P1;durP2;ratioP2;P2;SDS_P1;SDS_P2;PMS_P1;PMS_P2;Temp;Humidity;BMP_temperature;BMP_pressure;BME280_temperature;BME280_humidity;BME280_pressure;Samples;Min_cycle;Max_cycle;Signal;HPM_P1;HPM_P2
2022/07/24 00:02:20;;;;;;;27.08;8.25;;;;;;;16.00;100.00;100083.50;5048737;28;20375;-86
2022/07/24 00:04:56;;;;;;;23.70;8.18;;;;;;;16.43;100.00;100114.78;5076223;28;20056;-86
2022/07/24 00:07:24;;;;;;;21.07;8.10;;;;;;;16.40;100.00;100117.66;5061332;28;20049;-85
2022/07/24 00:09:50;;;;;;;24.13;7.63;;;;;;;16.17;100.00;100100.81;5085656;28;20296;-85
2022/07/24 00:12:17;;;;;;;23.75;6.50;;;;;;;16.44;100.00;100123.56;5098728;28;20401;-85
2022/07/24 00:14:44;;;;;;;18.33;6.40;;;;;;;16.48;100.00;100094.16;5069372;28;20048;-85
2022/07/24 00:17:11;;;;;;;17.77;6.80;;;;;;;16.29;100.00;100107.84;5070209;28;20056;-85
2022/07/24 00:19:37;;;;;;;16.35;5.63;;;;;;;16.29;100.00;100093.81;5056859;28;20059;-85
2022/07/24 00:22:04;;;;;;;18.67;5.20;;;;;;;16.29;100.00;100094.66;5041197;28;20137;-85
2022/07/24 00:24:31;;;;;;;15.13;5.80;;;;;;;16.22;100.00;100088.13;5044344;28;20556;-86
2022/07/24 00:26:58;;;;;;;13.73;5.15;;;;;;;16.21;100.00;100088.22;5052277;28;20052;-85
2022/07/24 00:29:24;;;;;;;15.18;5.07;;;;;;;16.08;100.00;100090.91;5069933;28;20044;-85
2022/07/24 00:31:51;;;;;;;10.45;3.92;;;;;;;16.13;100.00;100097.53;5062103;28;20067;-85
2022/07/24 00:34:18;;;;;;;15.35;4.32;;;;;;;16.20;100.00;100078.59;5077017;28;20051;-84
2022/07/24 00:36:46;;;;;;;14.40;3.83;;;;;;;16.18;100.00;100094.53;5041034;28;20059;-84
2022/07/24 00:39:13;;;;;;;16.05;3.53;;;;;;;16.22;100.00;100085.47;5062287;28;20063;-84
2022/07/24 00:41:40;;;;;;;15.20;3.35;;;;;;;16.27;100.00;100079.84;5045239;28;20045;-84
2022/07/24 00:44:08;;;;;;;14.93;3.40;;;;;;;16.25;100.00;100090.50;5059067;28;20055;-84
2022/07/24 00:46:37;;;;;;;12.43;3.35;;;;;;;16.21;100.00;100080.28;5061859;28;20044;-83
2022/07/24 00:49:06;;;;;;;13.82;3.17;;;;;;;16.42;100.00;100073.47;5048673;28;20139;-83
2022/07/24 00:51:46;;;;;;;15.02;3.83;;;;;;;16.35;100.00;100074.84;5071865;28;20048;-83
2022/07/24 00:54:15;;;;;;;11.02;3.75;;;;;;;16.30;100.00;100064.63;5051751;28;20067;-83
2022/07/24 00:56:44;;;;;;;10.32;3.13;;;;;;;16.37;100.00;100043.88;5050223;28;20052;-84
2022/07/24 00:59:11;;;;;;;20.35;5.63;;;;;;;16.42;100.00;100052.31;5044884;28;20048;-84
2022/07/24 01:01:38;;;;;;;20.63;6.28;;;;;;;16.44;100.00;100039.84;5057443;28;20056;-84
2022/07/24 01:04:05;;;;;;;20.92;6.40;;;;;;;16.40;100.00;100040.19;5055436;28;20049;-84
2022/07/24 01:06:35;;;;;;;21.20;5.78;;;;;;;16.32;100.00;100031.03;5083015;28;20500;-84
2022/07/24 01:09:02;;;;;;;21.45;6.30;;;;;;;16.29;100.00;100039.16;5048563;28;20487;-84
2022/07/24 01:11:30;;;;;;;23.50;6.07;;;;;;;16.42;100.00;100031.19;5056916;28;20040;-83
2022/07/24 01:13:57;;;;;;;17.33;5.78;;;;;;;16.49;100.00;100011.28;5063681;28;20076;-85
2022/07/24 01:16:24;;;;;;;20.25;5.75;;;;;;;16.45;100.00;100009.84;5043982;28;20056;-85
2022/07/24 01:18:51;;;;;;;20.63;6.55;;;;;;;16.39;100.00;99998.88;5045694;28;20049;-84
2022/07/24 01:21:17;;;;;;;17.92;6.20;;;;;;;16.36;100.00;100013.16;5040565;28;20132;-84
2022/07/24 01:23:45;;;;;;;14.45;5.40;;;;;;;16.37;100.00;99998.13;5072165;28;20048;-84
2022/07/24 01:26:12;;;;;;;21.33;6.97;;;;;;;16.31;100.00;99988.88;5088880;28;20056;-84
2022/07/24 01:28:38;;;;;;;21.23;5.97;;;;;;;16.43;100.00;99985.31;5082785;28;20062;-84
2022/07/24 01:31:05;;;;;;;19.13;6.07;;;;;;;16.33;100.00;99974.59;5080149;28;20051;-84
2022/07/24 01:33:32;;;;;;;17.42;6.03;;;;;;;16.32;100.00;99974.69;5055362;28;20441;-84
2022/07/24 01:35:59;;;;;;;16.80;5.47;;;;;;;16.33;100.00;99979.03;5056750;28;20068;-85
2022/07/24 01:38:26;;;;;;;13.40;4.57;;;;;;;16.40;100.00;99968.88;5051988;28;20053;-85
2022/07/24 01:40:53;;;;;;;13.23;4.55;;;;;;;16.59;100.00;99969.19;5036918;28;20044;-84
2022/07/24 01:43:20;;;;;;;10.65;3.65;;;;;;;16.42;100.00;99953.72;5057433;28;20053;-84
2022/07/24 01:45:47;;;;;;;14.93;4.50;;;;;;;16.33;100.00;99952.63;5046762;28;20084;-85
2022/07/24 01:48:14;;;;;;;12.32;4.00;;;;;;;16.38;100.00;99955.75;5054842;28;20049;-85
2022/07/24 01:50:40;;;;;;;12.40;4.50;;;;;;;16.29;100.00;99954.66;5048393;28;20402;-85
2022/07/24 01:53:07;;;;;;;11.88;4.28;;;;;;;16.26;100.00;99924.97;5056892;28;20044;-85
2022/07/24 01:55:34;;;;;;;17.55;4.82;;;;;;;16.03;100.00;99908.19;5036818;28;20051;-85
2022/07/24 01:58:01;;;;;;;11.93;4.38;;;;;;;16.14;100.00;99905.59;5065840;28;20060;-84
2022/07/24 02:00:28;;;;;;;14.93;4.80;;;;;;;16.14;100.00;99908.22;5048785;28;20040;-85
2022/07/24 02:02:54;;;;;;;17.80;6.43;;;;;;;16.26;100.00;99948.75;5054006;28;20482;-85
2022/07/24 02:05:21;;;;;;;16.40;5.57;;;;;;;16.17;100.00;99923.84;5039953;28;20053;-85
2022/07/24 02:07:58;;;;;;;19.02;7.50;;;;;;;16.27;100.00;99930.16;5060939;28;20073;-84
2022/07/24 02:10:27;;;;;;;21.05;6.93;;;;;;;16.21;100.00;99919.19;5075974;28;20459;-85
2022/07/24 02:12:54;;;;;;;19.55;6.72;;;;;;;16.36;100.00;99922.47;5047456;28;20049;-85
2022/07/24 02:15:25;;;;;;;21.42;7.38;;;;;;;16.32;100.00;99919.22;5044890;28;20048;-85
2022/07/24 02:17:55;;;;;;;25.50;9.02;;;;;;;16.32;100.00;99914.81;5057401;28;20057;-85
2022/07/24 02:20:22;;;;;;;24.58;8.43;;;;;;;16.09;100.00;99920.94;5039069;28;20132;-85
2022/07/24 02:22:49;;;;;;;24.80;7.55;;;;;;;16.26;100.00;99906.47;5089807;28;20131;-86
2022/07/24 02:25:16;;;;;;;32.58;7.35;;;;;;;16.33;100.00;99891.84;5069530;28;20406;-86
2022/07/24 02:27:42;;;;;;;22.35;6.07;;;;;;;16.42;100.00;99888.53;5055505;28;20052;-86
2022/07/24 02:30:13;;;;;;;14.90;5.10;;;;;;;16.35;100.00;99875.91;5055743;28;20478;-86
2022/07/24 02:32:40;;;;;;;14.80;4.75;;;;;;;16.44;100.00;99868.09;5050246;28;20041;-86
2022/07/24 02:35:08;;;;;;;18.75;6.18;;;;;;;16.33;100.00;99866.28;5036963;28;20534;-86
2022/07/24 02:37:40;;;;;;;16.02;4.65;;;;;;;16.52;100.00;99870.19;5069823;28;20059;-86
2022/07/24 02:40:09;;;;;;;16.95;5.03;;;;;;;16.12;100.00;99804.50;5064972;28;20651;-87
2022/07/24 02:42:38;;;;;;;17.27;5.18;;;;;;;16.11;100.00;99816.03;5046962;28;20435;-87
2022/07/24 02:45:06;;;;;;;15.20;5.22;;;;;;;16.48;100.00;99847.56;5046603;28;20131;-87
2022/07/24 02:47:33;;;;;;;21.55;6.47;;;;;;;16.29;100.00;99827.84;5049558;28;20048;-86
2022/07/24 02:50:00;;;;;;;19.42;6.78;;;;;;;16.20;100.00;99820.63;5043222;28;20417;-86
2022/07/24 02:52:27;;;;;;;21.45;6.10;;;;;;;16.19;100.00;99823.38;5073274;28;20416;-87
2022/07/24 02:54:54;;;;;;;18.45;5.00;;;;;;;16.12;100.00;99791.31;5043186;28;20074;-87
2022/07/24 02:57:21;;;;;;;17.88;5.60;;;;;;;16.42;100.00;99824.28;5061215;28;20064;-86
2022/07/24 02:59:51;;;;;;;22.90;6.25;;;;;;;16.29;100.00;99825.22;5049652;28;20045;-88
2022/07/24 03:02:19;;;;;;;17.50;5.65;;;;;;;16.37;100.00;99829.06;5035392;28;20123;-87
2022/07/24 03:04:47;;;;;;;18.80;5.50;;;;;;;16.27;100.00;99829.78;5038060;28;20640;-88
2022/07/24 03:07:14;;;;;;;12.77;4.10;;;;;;;16.38;100.00;99838.66;5063957;28;20383;-86
2022/07/24 03:09:41;;;;;;;15.73;4.43;;;;;;;16.47;100.00;99830.88;5073029;28;20401;-85
2022/07/24 03:12:08;;;;;;;15.23;4.80;;;;;;;16.35;100.00;99815.97;5066085;28;20049;-88
2022/07/24 03:14:35;;;;;;;17.00;5.43;;;;;;;16.49;100.00;99801.72;5035690;28;20501;-88
2022/07/24 03:17:02;;;;;;;16.05;5.32;;;;;;;16.32;100.00;99806.50;5057341;28;20048;-88
2022/07/24 03:19:29;;;;;;;15.35;5.18;;;;;;;16.44;100.00;99823.19;5064242;28;20083;-87
2022/07/24 03:21:56;;;;;;;14.98;4.32;;;;;;;16.43;100.00;99805.69;5066798;28;20052;-87
2022/07/24 03:24:23;;;;;;;14.07;3.97;;;;;;;16.54;100.00;99801.34;5034891;28;20049;-87
2022/07/24 03:26:50;;;;;;;18.70;4.80;;;;;;;16.51;100.00;99771.56;5055047;28;20407;-87
2022/07/24 03:29:16;;;;;;;13.50;3.78;;;;;;;16.50;100.00;99754.03;5067674;28;20067;-86
2022/07/24 03:31:43;;;;;;;15.35;3.65;;;;;;;16.52;100.00;99740.72;5041148;28;20049;-87
2022/07/24 03:34:10;;;;;;;13.88;3.40;;;;;;;16.76;100.00;99747.66;5059312;28;20054;-88
2022/07/24 03:36:37;;;;;;;14.18;3.00;;;;;;;16.73;100.00;99730.22;5043263;28;20060;-87
2022/07/24 03:39:05;;;;;;;9.45;2.30;;;;;;;16.78;100.00;99703.44;5070943;28;20133;-86
2022/07/24 03:41:33;;;;;;;9.85;2.45;;;;;;;16.94;100.00;99708.38;5063946;28;20044;-87
2022/07/24 03:43:59;;;;;;;5.13;1.80;;;;;;;17.03;100.00;99713.75;5040637;28;20079;-86
2022/07/24 03:46:28;;;;;;;5.28;1.55;;;;;;;16.88;100.00;99694.66;5080565;28;20048;-87
2022/07/24 03:48:56;;;;;;;5.25;1.35;;;;;;;17.04;100.00;99733.09;5044450;28;20056;-86
2022/07/24 03:51:23;;;;;;;5.43;1.58;;;;;;;17.19;100.00;99729.22;5052613;28;20041;-87
2022/07/24 03:53:52;;;;;;;3.85;1.33;;;;;;;17.19;100.00;99723.94;5035488;28;20060;-88
2022/07/24 03:56:20;;;;;;;6.30;1.25;;;;;;;16.79;100.00;99646.97;5061469;28;20055;-88
2022/07/24 03:58:52;;;;;;;3.53;1.30;;;;;;;17.06;100.00;99665.88;5050818;28;20044;-87
2022/07/24 04:01:19;;;;;;;4.15;1.17;;;;;;;17.08;100.00;99663.13;5049212;28;20132;-88
2022/07/24 04:03:46;;;;;;;4.20;1.17;;;;;;;17.21;100.00;99678.81;5034347;28;20062;-88
2022/07/24 04:06:13;;;;;;;2.08;0.90;;;;;;;17.23;100.00;99664.53;5051729;28;20402;-87
2022/07/24 04:08:40;;;;;;;2.63;0.82;;;;;;;17.38;100.00;99688.03;5043712;28;20070;-87
2022/07/24 04:11:07;;;;;;;2.90;0.90;;;;;;;17.52;100.00;99666.53;5065670;28;20044;-86
2022/07/24 04:13:34;;;;;;;1.95;0.80;;;;;;;17.52;100.00;99639.25;5059014;28;20059;-86
2022/07/24 04:16:08;;;;;;;3.53;0.82;;;;;;;17.11;100.00;99604.69;5054669;28;20051;-87
2022/07/24 04:18:35;;;;;;;1.88;0.80;;;;;;;17.24;100.00;99644.19;5036964;28;20098;-87
2022/07/24 04:21:02;;;;;;;3.40;0.90;;;;;;;17.32;100.00;99635.63;5054178;28;20395;-86
2022/07/24 04:23:28;;;;;;;0.65;0.60;;;;;;;17.47;100.00;99650.22;5043732;28;20063;-87
2022/07/24 04:25:55;;;;;;;2.17;0.80;;;;;;;17.44;100.00;99640.72;5065942;28;20049;-87
2022/07/24 04:28:22;;;;;;;2.60;0.70;;;;;;;17.63;100.00;99652.41;5057796;28;20054;-87
2022/07/24 04:30:48;;;;;;;1.40;0.70;;;;;;;17.39;100.00;99656.16;5051932;28;20044;-87
2022/07/24 04:33:15;;;;;;;2.33;0.70;;;;;;;17.49;100.00;99669.44;5059246;28;20398;-86
2022/07/24 04:35:42;;;;;;;1.20;0.60;;;;;;;17.59;100.00;99651.00;5044180;28;20057;-87
2022/07/24 04:38:09;;;;;;;0.85;0.65;;;;;;;17.60;100.00;99637.63;5051696;28;20627;-86
2022/07/24 04:40:36;;;;;;;2.65;0.60;;;;;;;17.62;100.00;99629.56;5072340;28;20465;-86
2022/07/24 04:43:02;;;;;;;0.60;0.60;;;;;;;17.74;100.00;99641.78;5054406;28;20470;-87
2022/07/24 04:45:29;;;;;;;1.95;0.60;;;;;;;17.56;100.00;99625.63;5070126;28;20048;-86
2022/07/24 04:48:02;;;;;;;1.02;0.63;;;;;;;17.80;100.00;99637.75;5058562;28;20576;-87
2022/07/24 04:50:29;;;;;;;0.68;0.60;;;;;;;17.90;100.00;99645.75;5043908;28;20372;-88
2022/07/24 04:52:55;;;;;;;0.90;0.60;;;;;;;17.86;100.00;99637.25;5042147;28;20040;-87
2022/07/24 04:55:22;;;;;;;1.35;0.63;;;;;;;17.84;100.00;99655.88;5052379;28;20406;-87
2022/07/24 04:57:49;;;;;;;0.60;0.60;;;;;;;17.93;100.00;99634.91;5043346;28;20096;-87
2022/07/24 05:00:16;;;;;;;1.00;0.60;;;;;;;18.03;100.00;99630.50;5066474;28;20049;-87
2022/07/24 05:02:43;;;;;;;0.75;0.60;;;;;;;17.89;100.00;99607.03;5056240;28;20045;-87
2022/07/24 05:05:10;;;;;;;0.63;0.60;;;;;;;17.86;100.00;99591.41;5045914;28;20059;-87
2022/07/24 05:07:37;;;;;;;0.75;0.60;;;;;;;17.65;100.00;99574.56;5057056;28;20055;-87
2022/07/24 05:10:05;;;;;;;0.73;0.60;;;;;;;17.66;100.00;99583.34;5071839;28;20443;-87
2022/07/24 05:12:32;;;;;;;2.65;0.60;;;;;;;17.71;100.00;99612.06;5057721;28;20048;-87
2022/07/24 05:14:59;;;;;;;0.50;0.50;;;;;;;17.66;100.00;99604.50;5058266;28;20064;-87
2022/07/24 05:17:26;;;;;;;0.77;0.70;;;;;;;17.61;100.00;99599.59;5056858;28;20048;-88
2022/07/24 05:19:52;;;;;;;0.82;0.60;;;;;;;17.77;100.00;99607.06;5057836;28;20490;-88
2022/07/24 05:22:19;;;;;;;0.60;0.60;;;;;;;17.98;100.00;99620.31;5066203;28;20122;-88
2022/07/24 05:24:46;;;;;;;0.80;0.60;;;;;;;17.90;100.00;99598.97;5065168;28;20052;-88
2022/07/24 05:27:13;;;;;;;1.27;0.82;;;;;;;18.07;100.00;99597.47;5054262;28;20049;-88
2022/07/24 05:29:41;;;;;;;0.88;0.60;;;;;;;18.00;100.00;99580.44;5045534;28;20048;-87
2022/07/24 05:32:08;;;;;;;2.13;0.50;;;;;;;18.17;100.00;99616.06;5076424;28;20059;-87
2022/07/24 05:34:35;;;;;;;2.35;0.75;;;;;;;18.30;100.00;99629.09;5060508;28;20452;-87
2022/07/24 05:37:08;;;;;;;0.50;0.50;;;;;;;18.26;100.00;99617.91;5058729;28;20052;-87
2022/07/24 05:39:34;;;;;;;1.75;0.50;;;;;;;18.28;100.00;99612.47;5066527;28;20063;-87
2022/07/24 05:42:03;;;;;;;0.50;0.50;;;;;;;18.34;100.00;99590.72;5039855;28;20482;-86
2022/07/24 05:44:30;;;;;;;0.50;0.50;;;;;;;18.39;100.00;99599.94;5056071;28;20052;-86
2022/07/24 05:46:57;;;;;;;0.50;0.50;;;;;;;18.24;100.00;99593.38;5059645;28;20055;-87
2022/07/24 05:49:24;;;;;;;2.38;0.60;;;;;;;18.34;100.00;99578.34;5056018;28;20060;-87
2022/07/24 05:51:52;;;;;;;0.68;0.50;;;;;;;18.09;100.00;99537.25;5070145;28;20123;-85
2022/07/24 05:54:19;;;;;;;1.05;0.60;;;;;;;18.09;100.00;99533.78;5052715;28;20059;-86
2022/07/24 05:56:45;;;;;;;1.98;0.60;;;;;;;18.27;100.00;99558.63;5040518;28;20049;-86
2022/07/24 05:59:12;;;;;;;2.30;0.60;;;;;;;18.21;100.00;99528.22;5050063;28;20052;-87
2022/07/24 06:01:39;;;;;;;1.13;0.63;;;;;;;18.44;100.00;99549.19;5044512;28;20075;-88
2022/07/24 06:04:06;;;;;;;1.05;0.65;;;;;;;18.38;100.00;99542.63;5069969;28;20130;-89
2022/07/24 06:06:33;;;;;;;0.82;0.60;;;;;;;18.51;100.00;99558.28;5042987;28;20489;-89
2022/07/24 06:09:00;;;;;;;0.63;0.50;;;;;;;18.44;100.00;99540.41;5082240;28;20139;-88
2022/07/24 06:11:27;;;;;;;1.05;0.55;;;;;;;18.46;100.00;99531.34;5062033;28;20064;-89
2022/07/24 06:13:55;;;;;;;0.93;0.50;;;;;;;19.05;100.00;99571.16;5047325;28;20049;-89
2022/07/24 06:16:22;;;;;;;1.23;0.60;;;;;;;19.51;100.00;99524.41;5049079;28;20064;-89
2022/07/24 06:18:49;;;;;;;0.50;0.50;;;;;;;20.48;100.00;99541.72;5041699;28;20410;-88
2022/07/24 06:21:16;;;;;;;1.83;0.70;;;;;;;20.40;100.00;99539.81;5067353;28;20401;-88
2022/07/24 06:23:43;;;;;;;0.50;0.50;;;;;;;20.28;100.00;99523.25;5059558;28;20060;-88
2022/07/24 06:26:10;;;;;;;1.35;0.50;;;;;;;20.18;100.00;99518.97;5045304;28;20048;-87
2022/07/24 06:28:36;;;;;;;0.68;0.50;;;;;;;19.82;100.00;99529.53;5042143;28;20045;-89
2022/07/24 06:31:03;;;;;;;0.50;0.50;;;;;;;19.65;100.00;99553.16;5059947;28;20060;-87
2022/07/24 06:33:31;;;;;;;0.40;0.40;;;;;;;19.52;100.00;99561.44;5061930;28;20041;-88
2022/07/24 06:35:59;;;;;;;0.63;0.50;;;;;;;19.41;100.00;99568.75;5065057;28;20421;-88
2022/07/24 06:38:26;;;;;;;0.98;0.52;;;;;;;19.37;100.00;99556.72;5069657;28;20048;-89
2022/07/24 06:40:53;;;;;;;3.05;0.73;;;;;;;19.75;100.00;99563.78;5065480;28;20135;-89
2022/07/24 06:43:20;;;;;;;0.95;0.50;;;;;;;20.63;100.00;99544.75;5048644;28;20047;-90
2022/07/24 06:45:47;;;;;;;1.95;0.60;;;;;;;21.17;100.00;99534.03;5056942;28;20107;-89
2022/07/24 06:48:14;;;;;;;0.52;0.52;;;;;;;21.32;100.00;99544.94;5064642;28;20109;-89
2022/07/24 06:50:54;;;;;;;0.43;0.43;;;;;;;21.21;100.00;99557.53;5068182;28;20049;-89
2022/07/24 06:53:37;;;;;;;0.65;0.50;;;;;;;21.31;100.00;99567.25;5051719;28;20074;-89
2022/07/24 06:56:17;;;;;;;0.40;0.40;;;;;;;21.10;100.00;99554.28;5047802;28;20045;-88
2022/07/24 06:58:59;;;;;;;0.82;0.50;;;;;;;20.90;100.00;99566.94;5078031;28;20096;-87
2022/07/24 07:01:40;;;;;;;0.70;0.40;;;;;;;20.45;100.00;99568.59;5061960;28;20053;-88
2022/07/24 07:04:21;;;;;;;1.45;0.60;;;;;;;20.13;100.00;99561.09;5052686;28;20037;-88
2022/07/24 07:07:03;;;;;;;1.52;0.68;;;;;;;20.29;100.00;99572.78;5076952;28;20046;-87
2022/07/24 07:09:44;;;;;;;1.23;0.60;;;;;;;20.77;100.00;99575.28;5036918;28;20388;-86
2022/07/24 07:12:25;;;;;;;1.67;0.60;;;;;;;20.96;100.00;99542.34;5071354;28;20028;-87
2022/07/24 07:15:06;;;;;;;0.80;0.50;;;;;;;22.13;100.00;99568.56;5074854;28;20056;-87
2022/07/24 07:17:46;;;;;;;2.47;0.50;;;;;;;22.12;100.00;99566.91;5069639;28;20051;-88
2022/07/24 07:20:28;;;;;;;1.00;0.60;;;;;;;22.46;100.00;99543.88;5087773;28;20113;-88
2022/07/24 07:23:09;;;;;;;1.55;0.60;;;;;;;22.51;100.00;99536.22;5092902;28;20017;-88
2022/07/24 07:25:50;;;;;;;2.13;0.50;;;;;;;22.92;100.00;99570.94;5073641;28;20500;-88
2022/07/24 07:28:30;;;;;;;0.50;0.40;;;;;;;23.05;100.00;99576.63;5073521;28;20032;-83
2022/07/24 07:31:12;;;;;;;0.63;0.43;;;;;;;23.31;100.00;99573.78;5073065;28;20056;-88
2022/07/24 07:33:53;;;;;;;1.30;0.50;;;;;;;23.48;100.00;99579.13;5072816;28;20041;-90
2022/07/24 07:36:37;;;;;;;0.30;0.30;;;;;;;24.05;100.00;99565.63;5065329;28;20048;-89
2022/07/24 07:39:17;;;;;;;0.30;0.30;;;;;;;24.47;100.00;99587.66;5073619;28;20032;-88
2022/07/24 07:41:58;;;;;;;0.52;0.40;;;;;;;24.09;100.00;99592.84;5071801;28;20088;-88
2022/07/24 07:44:39;;;;;;;1.35;0.38;;;;;;;24.02;100.00;99618.59;5087691;28;20053;-89
2022/07/24 07:47:23;;;;;;;0.77;0.43;;;;;;;24.07;100.00;99613.56;5113466;28;20060;-89
2022/07/24 07:50:05;;;;;;;1.03;0.47;;;;;;;24.26;100.00;99597.09;5069804;28;20112;-89
2022/07/24 07:52:46;;;;;;;1.08;0.60;;;;;;;23.99;100.00;99600.22;5069569;28;20044;-88
2022/07/24 07:55:26;;;;;;;1.95;0.40;;;;;;;24.38;100.00;99640.38;5059024;28;20040;-87
2022/07/24 07:58:10;;;;;;;1.17;0.57;;;;;;;24.60;100.00;99641.44;5056076;28;20049;-89
2022/07/24 08:00:51;;;;;;;2.08;0.50;;;;;;;24.53;100.00;99612.88;5059935;28;20087;-87
2022/07/24 08:03:31;;;;;;;0.85;0.50;;;;;;;24.26;100.00;99599.78;5078385;28;20044;-89
2022/07/24 08:06:12;;;;;;;3.50;0.80;;;;;;;24.34;100.00;99619.47;5061310;28;20025;-88
2022/07/24 08:08:53;;;;;;;1.35;0.52;;;;;;;24.47;100.00;99622.44;5064615;28;20661;-88
2022/07/24 08:11:34;;;;;;;1.27;0.70;;;;;;;24.42;100.00;99614.94;5069215;28;20055;-88
2022/07/24 08:14:15;;;;;;;2.30;0.60;;;;;;;24.65;100.00;99603.47;5066406;28;20060;-87
2022/07/24 08:16:56;;;;;;;1.13;0.60;;;;;;;24.70;100.00;99602.91;5060088;28;20109;-88
2022/07/24 08:19:37;;;;;;;1.52;0.70;;;;;;;24.95;100.00;99603.59;5046829;28;20044;-87
2022/07/24 08:22:18;;;;;;;3.85;0.68;;;;;;;24.23;100.00;99594.78;5078956;28;20477;-88
2022/07/24 08:24:58;;;;;;;1.30;0.60;;;;;;;24.80;100.00;99625.75;5070637;28;20024;-89
2022/07/24 08:27:39;;;;;;;1.20;0.60;;;;;;;24.38;100.00;99572.63;5051512;28;20060;-89
2022/07/24 08:30:25;;;;;;;2.47;0.70;;;;;;;25.05;100.00;99639.00;5064710;28;20048;-89
2022/07/24 08:33:05;;;;;;;2.08;0.70;;;;;;;24.80;100.00;99643.69;5054321;28;20044;-87
2022/07/24 08:35:47;;;;;;;1.42;0.60;;;;;;;24.75;100.00;99638.84;5090112;28;20053;-88
2022/07/24 08:38:28;;;;;;;1.65;0.77;;;;;;;24.55;100.00;99630.44;5082184;28;20044;-87
2022/07/24 08:41:09;;;;;;;1.70;0.65;;;;;;;25.13;100.00;99630.06;5065544;28;20040;-88
2022/07/24 08:43:50;;;;;;;4.30;0.80;;;;;;;25.26;100.00;99648.25;5064457;28;20078;-88
2022/07/24 08:46:32;;;;;;;2.55;0.90;;;;;;;25.03;100.00;99654.41;5078156;28;20056;-89
2022/07/24 08:49:15;;;;;;;1.10;0.70;;;;;;;25.10;100.00;99667.94;5074968;28;20048;-88
2022/07/24 08:52:01;;;;;;;1.80;0.73;;;;;;;24.77;100.00;99652.06;5047740;28;20021;-89
2022/07/24 08:54:42;;;;;;;4.03;0.90;;;;;;;24.49;100.00;99632.94;5075319;28;20075;-87
2022/07/24 08:57:23;;;;;;;4.13;0.85;;;;;;;25.01;100.00;99662.59;5075277;28;20054;-90
2022/07/24 09:00:07;;;;;;;2.65;1.00;;;;;;;25.37;100.00;99651.34;5044608;28;20056;-88
2022/07/24 09:02:48;;;;;;;3.97;1.02;;;;;;;24.97;100.00;99661.31;5076736;28;20044;-90
2022/07/24 09:05:32;;;;;;;3.05;1.00;;;;;;;24.15;100.00;99639.44;5067404;28;20028;-88
2022/07/24 09:08:14;;;;;;;1.77;0.70;;;;;;;24.94;100.00;99680.41;5070227;28;20059;-88
2022/07/24 09:11:03;;;;;;;2.40;0.93;;;;;;;24.63;100.00;99675.91;5092574;28;20052;-87
2022/07/24 09:16:43;;;;;;;2.85;1.10;;;;;;;23.45;100.00;99659.59;5082735;28;20052;-87
2022/07/24 09:19:13;;;;;;;2.40;0.80;;;;;;;23.30;100.00;99640.72;5084938;28;20048;-87
2022/07/24 09:21:49;;;;;;;4.32;1.23;;;;;;;23.39;100.00;99673.59;5066074;28;20071;-87
2022/07/24 09:24:23;;;;;;;2.53;0.80;;;;;;;23.32;100.00;99662.78;5074064;28;20131;-88
2022/07/24 09:27:03;;;;;;;3.08;1.00;;;;;;;22.75;100.00;99692.81;5091653;28;20135;-88
2022/07/24 09:29:44;;;;;;;3.13;1.00;;;;;;;22.88;100.00;99679.03;5075465;28;20409;-86
2022/07/24 09:32:22;;;;;;;5.53;1.50;;;;;;;23.15;100.00;99647.72;5076974;28;20056;-86
2022/07/24 09:34:52;;;;;;;2.30;1.00;;;;;;;23.97;100.00;99698.47;5079102;28;20071;-87
2022/07/24 09:37:20;;;;;;;3.40;1.10;;;;;;;23.88;100.00;99706.50;5074116;28;20067;-88
2022/07/24 09:40:09;;;;;;;6.53;1.45;;;;;;;24.27;100.00;99715.63;5072264;28;20067;-87
2022/07/24 09:43:11;;;;;;;4.65;1.10;;;;;;;24.13;100.00;99698.44;5066407;28;20438;-87
2022/07/24 09:45:52;;;;;;;3.88;1.00;;;;;;;24.02;100.00;99714.84;5057081;28;20148;-87
2022/07/24 09:48:31;;;;;;;3.25;1.10;;;;;;;24.09;100.00;99691.75;5068039;28;20054;-87
2022/07/24 09:51:02;;;;;;;3.60;1.10;;;;;;;23.42;100.00;99722.16;5064890;28;20734;-86
2022/07/24 09:53:31;;;;;;;2.60;0.88;;;;;;;23.88;100.00;99695.81;5067741;28;20041;-87
2022/07/24 09:56:09;;;;;;;5.32;1.05;;;;;;;23.68;100.00;99708.66;5048054;28;20057;-87
2022/07/24 09:58:44;;;;;;;2.58;0.90;;;;;;;23.77;100.00;99668.59;5075201;28;20081;-87
2022/07/24 10:01:12;;;;;;;4.45;1.00;;;;;;;24.28;100.00;99657.63;5098294;28;20050;-88
2022/07/24 10:03:41;;;;;;;2.92;1.00;;;;;;;24.19;100.00;99691.59;5059615;28;20496;-88
2022/07/24 10:06:12;;;;;;;1.48;0.65;;;;;;;24.72;100.00;99687.41;5049710;28;20106;-87
2022/07/24 10:08:41;;;;;;;2.42;0.95;;;;;;;24.63;100.00;99697.31;5056415;28;20131;-86
2022/07/24 10:11:10;;;;;;;2.40;0.88;;;;;;;24.21;100.00;99719.81;5080866;28;20072;-88
2022/07/24 10:13:38;;;;;;;2.38;0.80;;;;;;;23.31;100.00;99701.97;5069817;28;20120;-89
2022/07/24 10:16:26;;;;;;;2.83;0.90;;;;;;;23.34;100.00;99730.19;5086340;28;20049;-90
2022/07/24 10:19:04;;;;;;;1.63;0.70;;;;;;;23.76;100.00;99736.38;5076694;28;20063;-89
2022/07/24 10:21:36;;;;;;;2.65;0.80;;;;;;;23.82;100.00;99696.50;5079482;28;20041;-92
2022/07/24 10:24:10;;;;;;;2.67;0.85;;;;;;;24.00;100.00;99752.44;5058567;28;20047;-87
2022/07/24 10:26:44;;;;;;;2.10;0.68;;;;;;;23.78;100.00;99715.66;5066052;28;20120;-86
2022/07/24 10:29:16;;;;;;;2.13;0.80;;;;;;;23.85;100.00;99741.59;5070117;28;20361;-88
2022/07/24 10:31:45;;;;;;;2.10;0.70;;;;;;;23.64;100.00;99712.69;5079397;28;20152;-87
2022/07/24 10:34:31;;;;;;;2.00;0.80;;;;;;;23.89;100.00;99726.06;5063040;28;20380;-88
2022/07/24 10:37:23;;;;;;;3.08;0.98;;;;;;;23.83;100.00;99718.69;5078160;28;20406;-88
2022/07/24 10:40:19;;;;;;;1.20;0.70;;;;;;;23.72;100.00;99749.25;5070283;28;20057;-87
2022/07/24 10:43:09;;;;;;;2.33;0.90;;;;;;;23.84;100.00;99745.25;5081067;28;20052;-88
2022/07/24 10:45:39;;;;;;;2.13;0.70;;;;;;;23.93;100.00;99747.94;5067447;28;20411;-88
2022/07/24 10:48:19;;;;;;;0.90;0.60;;;;;;;23.92;100.00;99757.81;5075268;28;20044;-89
2022/07/24 10:51:10;;;;;;;1.17;0.70;;;;;;;23.88;100.00;99732.41;5073931;28;20514;-89
2022/07/24 10:53:53;;;;;;;1.67;0.80;;;;;;;24.00;100.00;99743.59;5068261;28;20103;-89
2022/07/24 10:56:28;;;;;;;2.28;0.85;;;;;;;24.07;100.00;99761.44;5096102;28;20079;-89
2022/07/24 10:59:36;;;;;;;2.42;0.77;;;;;;;24.26;100.00;99762.09;5073638;28;20067;-89
2022/07/24 11:02:28;;;;;;;1.58;0.65;;;;;;;24.18;100.00;99757.59;5052240;28;20048;-89
2022/07/24 11:05:27;;;;;;;2.85;0.90;;;;;;;24.07;100.00;99756.09;5055228;28;20098;-89
2022/07/24 11:08:15;;;;;;;2.00;0.80;;;;;;;24.40;100.00;99765.91;5089511;28;20112;-89
2022/07/24 11:10:51;;;;;;;3.53;0.85;;;;;;;23.78;100.00;99708.50;5066101;28;20543;-90
2022/07/24 11:13:34;;;;;;;4.13;1.00;;;;;;;24.38;100.00;99763.41;5086643;28;20201;-88
2022/07/24 11:16:26;;;;;;;3.20;1.00;;;;;;;24.50;100.00;99758.50;5084460;28;20063;-88
2022/07/24 11:18:57;;;;;;;3.55;1.10;;;;;;;24.31;100.00;99775.81;5096114;28;20048;-89
2022/07/24 11:21:36;;;;;;;4.15;1.20;;;;;;;23.79;100.00;99746.75;5064537;28;20048;-87
2022/07/24 11:24:21;;;;;;;3.47;0.95;;;;;;;23.50;100.00;99764.09;5054755;28;20052;-89
2022/07/24 11:26:49;;;;;;;2.40;1.00;;;;;;;23.73;100.00;99760.75;5078694;28;20131;-87
2022/07/24 11:29:17;;;;;;;3.72;1.00;;;;;;;23.63;100.00;99744.91;5059892;28;20103;-88
2022/07/24 11:31:46;;;;;;;4.13;1.30;;;;;;;23.58;100.00;99763.28;5071561;28;20045;-88
2022/07/24 11:34:14;;;;;;;1.45;0.77;;;;;;;23.60;100.00;99742.56;5054431;28;20126;-88
2022/07/24 11:36:47;;;;;;;2.17;0.98;;;;;;;23.70;100.00;99767.28;5074278;28;20124;-89
2022/07/24 11:39:36;;;;;;;5.03;1.08;;;;;;;23.36;100.00;99744.22;5066446;28;20399;-89
2022/07/24 11:42:12;;;;;;;4.22;1.40;;;;;;;23.59;100.00;99780.97;5089785;28;20051;-87
2022/07/24 11:44:42;;;;;;;3.47;1.15;;;;;;;23.74;100.00;99768.63;5082211;28;20044;-88
2022/07/24 11:47:26;;;;;;;4.63;1.17;;;;;;;23.99;100.00;99766.81;5065045;28;20123;-88
2022/07/24 11:50:00;;;;;;;1.77;0.80;;;;;;;24.28;100.00;99765.44;5082549;28;20058;-87